Caicara, Brazil
Current Conditions -  °F | °C
As of 6:00 AM on Thursday 18 Dec 2014 (Local Time) from SBCH Reporting Station
Clear Clear  
Wind Chill: 70°   Ceiling: Unl
Heat Index: 70°   Visibility: 6mi
Dew Point: 63°   Wind: 7mph
Humidity: 78%   Direction: 150°SSE
Pressure: 29.88"   Gusts: NA
Location:  27.27°S, 53.43°W
Report Text: SBCH 180800Z 15006KT CAVOK 21/17 Q1012
Loading
Personal Weather Stations






























Interactive Weather Map New forecast layout! Learn more

10-Day Weather Forecast

Advertisements
Track Severe Weather on mobile